AEA921 LEMD-LEPA
Flight info
| Callsign | AEA921 |
|---|---|
| Flight time | 0h 57m |
| Altitude | 30000 |
| Route | NANDO T257 FENXE/N0468F320 T257 LASPO/N0433F260 M871 GODOX |
| Aircraft | B789/H-SDE1E2E3FGHIJ2J3J4J5M1RWXY/LB1D1 |
Departure
| Time | 2026-05-01 10:18 |
|---|---|
| Airport | Adolfo Suárez Madrid–Barajas Airport (LEMD) |
Arrival
| Time | 2026-05-01 11:16 |
|---|---|
| Airport | Palma de Mallorca Airport (LEPA) |
| Time | Latitude | Longitude | Altitude | Speed | Heading |
|---|---|---|---|---|---|
| 2026-05-01 09:39 | 40.46158 | -3.57066 | 1976 ft | 0 kts | 4° |
| 2026-05-01 10:01 | 40.46150 | -3.57067 | 1976 ft | 4 kts | 4° |
| 2026-05-01 10:01 | 40.46122 | -3.57069 | 1979 ft | 4 kts | 4° |
| 2026-05-01 10:02 | 40.46096 | -3.57072 | 1978 ft | 5 kts | 4° |
| 2026-05-01 10:02 | 40.46070 | -3.57075 | 1978 ft | 5 kts | 16° |
| 2026-05-01 10:02 | 40.46048 | -3.57091 | 1978 ft | 5 kts | 52° |
| 2026-05-01 10:02 | 40.46035 | -3.57118 | 1978 ft | 2 kts | 64° |
| 2026-05-01 10:03 | 40.46035 | -3.57119 | 1979 ft | 5 kts | 64° |
| 2026-05-01 10:06 | 40.46040 | -3.57106 | 1978 ft | 3 kts | 64° |
| 2026-05-01 10:06 | 40.46059 | -3.57068 | 1977 ft | 6 kts | 53° |
| 2026-05-01 10:07 | 40.46093 | -3.57014 | 1980 ft | 9 kts | 50° |
| 2026-05-01 10:07 | 40.46135 | -3.56948 | 1980 ft | 10 kts | 49° |
| 2026-05-01 10:07 | 40.46188 | -3.56874 | 1981 ft | 12 kts | 43° |
| 2026-05-01 10:07 | 40.46259 | -3.56807 | 1981 ft | 13 kts | 33° |
| 2026-05-01 10:08 | 40.46329 | -3.56605 | 1981 ft | 11 kts | 26° |
| 2026-05-01 10:08 | 40.46410 | -3.56592 | 1981 ft | 12 kts | 4° |
| 2026-05-01 10:08 | 40.46501 | -3.56585 | 1978 ft | 14 kts | 2° |
| 2026-05-01 10:09 | 40.46600 | -3.56575 | 1980 ft | 15 kts | 4° |
| 2026-05-01 10:09 | 40.46707 | -3.56567 | 1983 ft | 16 kts | 2° |
| 2026-05-01 10:09 | 40.46822 | -3.56559 | 1980 ft | 17 kts | 3° |
| 2026-05-01 10:09 | 40.46942 | -3.56550 | 1982 ft | 17 kts | 2° |
| 2026-05-01 10:10 | 40.47061 | -3.56566 | 1986 ft | 17 kts | 343° |
| 2026-05-01 10:10 | 40.47163 | -3.56643 | 1990 ft | 17 kts | 322° |
| 2026-05-01 10:10 | 40.47336 | -3.56820 | 1993 ft | 15 kts | 322° |
| 2026-05-01 10:11 | 40.47418 | -3.56906 | 1995 ft | 15 kts | 321° |
| 2026-05-01 10:11 | 40.47499 | -3.56987 | 1997 ft | 15 kts | 322° |
| 2026-05-01 10:11 | 40.47579 | -3.57068 | 2001 ft | 14 kts | 322° |
| 2026-05-01 10:11 | 40.47662 | -3.57152 | 2004 ft | 17 kts | 322° |
| 2026-05-01 10:12 | 40.47757 | -3.57248 | 2003 ft | 17 kts | 322° |
| 2026-05-01 10:12 | 40.47847 | -3.57341 | 2006 ft | 16 kts | 322° |
| 2026-05-01 10:12 | 40.48042 | -3.57536 | 2003 ft | 20 kts | 322° |
| 2026-05-01 10:13 | 40.48160 | -3.57656 | 2001 ft | 23 kts | 322° |
| 2026-05-01 10:13 | 40.48292 | -3.57792 | 1998 ft | 26 kts | 322° |
| 2026-05-01 10:13 | 40.48443 | -3.57927 | 1998 ft | 26 kts | 328° |
| 2026-05-01 10:14 | 40.48650 | -3.58047 | 2005 ft | 15 kts | 357° |
| 2026-05-01 10:14 | 40.48762 | -3.58050 | 2006 ft | 17 kts | 359° |
| 2026-05-01 10:14 | 40.48883 | -3.58052 | 2008 ft | 18 kts | 359° |
| 2026-05-01 10:14 | 40.49012 | -3.58053 | 2008 ft | 19 kts | 359° |
| 2026-05-01 10:15 | 40.49141 | -3.58055 | 2008 ft | 16 kts | 359° |
| 2026-05-01 10:15 | 40.49229 | -3.58024 | 2006 ft | 14 kts | 46° |
| 2026-05-01 10:15 | 40.49244 | -3.57890 | 2003 ft | 17 kts | 90° |
| 2026-05-01 10:15 | 40.49245 | -3.57742 | 1997 ft | 14 kts | 90° |
| 2026-05-01 10:16 | 40.49250 | -3.57629 | 1993 ft | 11 kts | 79° |
| 2026-05-01 10:16 | 40.49256 | -3.57601 | 1995 ft | 0 kts | 72° |
| 2026-05-01 10:17 | 40.49259 | -3.57592 | 1994 ft | 3 kts | 71° |
| 2026-05-01 10:17 | 40.49336 | -3.57478 | 1993 ft | 13 kts | 32° |
| 2026-05-01 10:17 | 40.49435 | -3.57450 | 1992 ft | 16 kts | 360° |
| 2026-05-01 10:18 | 40.49963 | -3.57456 | 1992 ft | 102 kts | 359° |
| 2026-05-01 10:18 | 40.50952 | -3.57460 | 2015 ft | 182 kts | 360° |
| 2026-05-01 10:18 | 40.52289 | -3.57473 | 2769 ft | 197 kts | 359° |
| 2026-05-01 10:19 | 40.53662 | -3.57462 | 3807 ft | 195 kts | 4° |
| 2026-05-01 10:19 | 40.55005 | -3.57224 | 4789 ft | 196 kts | 12° |
| 2026-05-01 10:19 | 40.56380 | -3.56954 | 5626 ft | 204 kts | 10° |
| 2026-05-01 10:20 | 40.59231 | -3.56282 | 7337 ft | 209 kts | 13° |
| 2026-05-01 10:20 | 40.60653 | -3.55839 | 8127 ft | 213 kts | 12° |
| 2026-05-01 10:20 | 40.62141 | -3.55364 | 8683 ft | 231 kts | 16° |
| 2026-05-01 10:20 | 40.63706 | -3.54437 | 8970 ft | 262 kts | 22° |
| 2026-05-01 10:21 | 40.65555 | -3.53971 | 9778 ft | 267 kts | 2° |
| 2026-05-01 10:21 | 40.69261 | -3.53685 | 11828 ft | 274 kts | 15° |
| 2026-05-01 10:21 | 40.70913 | -3.52433 | 12704 ft | 283 kts | 41° |
| 2026-05-01 10:22 | 40.73323 | -3.47973 | 14222 ft | 304 kts | 57° |
| 2026-05-01 10:22 | 40.75720 | -3.43269 | 15946 ft | 313 kts | 60° |
| 2026-05-01 10:23 | 40.76348 | -3.40540 | 16827 ft | 313 kts | 86° |
| 2026-05-01 10:23 | 40.74992 | -3.35279 | 18468 ft | 314 kts | 129° |
| 2026-05-01 10:23 | 40.73672 | -3.32955 | 19176 ft | 318 kts | 129° |
| 2026-05-01 10:24 | 40.70902 | -3.28271 | 20178 ft | 336 kts | 136° |
| 2026-05-01 10:24 | 40.66789 | -3.25286 | 20199 ft | 359 kts | 160° |
| 2026-05-01 10:25 | 40.61887 | -3.22765 | 20202 ft | 392 kts | 160° |
| 2026-05-01 10:25 | 40.56810 | -3.20052 | 20194 ft | 395 kts | 160° |
| 2026-05-01 10:26 | 40.54254 | -3.18707 | 20191 ft | 395 kts | 160° |
| 2026-05-01 10:26 | 40.51694 | -3.17367 | 20190 ft | 395 kts | 160° |
| 2026-05-01 10:26 | 40.46673 | -3.14720 | 20191 ft | 396 kts | 160° |
| 2026-05-01 10:27 | 40.41548 | -3.12014 | 21414 ft | 400 kts | 158° |
| 2026-05-01 10:27 | 40.36988 | -3.07645 | 22539 ft | 412 kts | 141° |
| 2026-05-01 10:28 | 40.34828 | -3.05156 | 23101 ft | 416 kts | 140° |
| 2026-05-01 10:28 | 40.30432 | -3.00120 | 24108 ft | 422 kts | 141° |
| 2026-05-01 10:28 | 40.28228 | -2.97635 | 24522 ft | 426 kts | 141° |
| 2026-05-01 10:29 | 40.23735 | -2.92522 | 25529 ft | 427 kts | 141° |
| 2026-05-01 10:29 | 40.21487 | -2.89972 | 26097 ft | 427 kts | 141° |
| 2026-05-01 10:30 | 40.16968 | -2.84862 | 27149 ft | 430 kts | 141° |
| 2026-05-01 10:30 | 40.13138 | -2.78879 | 28319 ft | 435 kts | 118° |
| 2026-05-01 10:31 | 40.11183 | -2.71424 | 29556 ft | 437 kts | 108° |
| 2026-05-01 10:31 | 40.09492 | -2.63817 | 30947 ft | 433 kts | 108° |
| 2026-05-01 10:32 | 40.07755 | -2.56210 | 31176 ft | 434 kts | 108° |
| 2026-05-01 10:32 | 40.06905 | -2.52460 | 31182 ft | 426 kts | 108° |
| 2026-05-01 10:33 | 40.03540 | -2.37707 | 31188 ft | 424 kts | 108° |
| 2026-05-01 10:34 | 40.01016 | -2.26696 | 31203 ft | 422 kts | 109° |
| 2026-05-01 10:34 | 39.99334 | -2.19405 | 31202 ft | 420 kts | 109° |
| 2026-05-01 10:35 | 39.96838 | -2.12595 | 31228 ft | 416 kts | 121° |
| 2026-05-01 10:35 | 39.95437 | -2.09284 | 31232 ft | 416 kts | 122° |
| 2026-05-01 10:35 | 39.92632 | -2.02678 | 31229 ft | 417 kts | 121° |
| 2026-05-01 10:36 | 39.88444 | -1.92807 | 31236 ft | 416 kts | 122° |
| 2026-05-01 10:37 | 39.85652 | -1.86248 | 31231 ft | 410 kts | 122° |
| 2026-05-01 10:37 | 39.81480 | -1.76480 | 31239 ft | 413 kts | 122° |
| 2026-05-01 10:38 | 39.78684 | -1.69947 | 31235 ft | 413 kts | 122° |
| 2026-05-01 10:38 | 39.75901 | -1.63457 | 31240 ft | 414 kts | 122° |
| 2026-05-01 10:39 | 39.73086 | -1.56909 | 31239 ft | 414 kts | 122° |
| 2026-05-01 10:39 | 39.70277 | -1.50387 | 31230 ft | 414 kts | 122° |
| 2026-05-01 10:40 | 39.67447 | -1.43833 | 31225 ft | 415 kts | 122° |
| 2026-05-01 10:40 | 39.64621 | -1.37299 | 31224 ft | 415 kts | 122° |
| 2026-05-01 10:41 | 39.61784 | -1.30756 | 31222 ft | 415 kts | 122° |
| 2026-05-01 10:42 | 39.57554 | -1.21022 | 31213 ft | 413 kts | 122° |
| 2026-05-01 10:42 | 39.54707 | -1.14509 | 31215 ft | 420 kts | 122° |
| 2026-05-01 10:43 | 39.51834 | -1.07901 | 31225 ft | 416 kts | 122° |
| 2026-05-01 10:43 | 39.48981 | -1.01394 | 31226 ft | 414 kts | 122° |
| 2026-05-01 10:44 | 39.46154 | -0.94947 | 31228 ft | 414 kts | 122° |
| 2026-05-01 10:44 | 39.43310 | -0.88475 | 31229 ft | 413 kts | 122° |
| 2026-05-01 10:45 | 39.40461 | -0.82006 | 31233 ft | 414 kts | 122° |
| 2026-05-01 10:45 | 39.37604 | -0.75530 | 31226 ft | 414 kts | 123° |
| 2026-05-01 10:46 | 39.34777 | -0.69140 | 31224 ft | 409 kts | 123° |
| 2026-05-01 10:46 | 39.31934 | -0.62725 | 31233 ft | 412 kts | 122° |
| 2026-05-01 10:47 | 39.29239 | -0.56201 | 31248 ft | 413 kts | 111° |
| 2026-05-01 10:47 | 39.28576 | -0.52576 | 31254 ft | 418 kts | 98° |
| 2026-05-01 10:47 | 39.28564 | -0.48809 | 31242 ft | 421 kts | 89° |
| 2026-05-01 10:48 | 39.28957 | -0.41302 | 31231 ft | 421 kts | 88° |
| 2026-05-01 10:48 | 39.29367 | -0.33757 | 31229 ft | 421 kts | 89° |
| 2026-05-01 10:49 | 39.29755 | -0.26222 | 31243 ft | 420 kts | 88° |
| 2026-05-01 10:49 | 39.30150 | -0.18682 | 31231 ft | 421 kts | 89° |
| 2026-05-01 10:50 | 39.30530 | -0.11195 | 31225 ft | 420 kts | 89° |
| 2026-05-01 10:50 | 39.30912 | -0.03640 | 31229 ft | 421 kts | 89° |
| 2026-05-01 10:51 | 39.31225 | 0.02638 | 31220 ft | 422 kts | 89° |
| 2026-05-01 10:51 | 39.31597 | 0.10192 | 31223 ft | 421 kts | 89° |
| 2026-05-01 10:52 | 39.32025 | 0.19017 | 31224 ft | 421 kts | 89° |
| 2026-05-01 10:52 | 39.32326 | 0.25292 | 31225 ft | 421 kts | 89° |
| 2026-05-01 10:53 | 39.32683 | 0.32851 | 31217 ft | 422 kts | 89° |
| 2026-05-01 10:53 | 39.33037 | 0.40416 | 31214 ft | 421 kts | 89° |
| 2026-05-01 10:54 | 39.33380 | 0.47902 | 31206 ft | 420 kts | 89° |
| 2026-05-01 10:54 | 39.33714 | 0.55456 | 31206 ft | 419 kts | 89° |
| 2026-05-01 10:55 | 39.34063 | 0.62949 | 31214 ft | 419 kts | 89° |
| 2026-05-01 10:55 | 39.34225 | 0.66702 | 31025 ft | 419 kts | 89° |
| 2026-05-01 10:55 | 39.34387 | 0.70470 | 30629 ft | 422 kts | 89° |
| 2026-05-01 10:55 | 39.34554 | 0.74255 | 30345 ft | 421 kts | 89° |
| 2026-05-01 10:56 | 39.34717 | 0.78035 | 29955 ft | 422 kts | 89° |
| 2026-05-01 10:56 | 39.34877 | 0.81777 | 29515 ft | 424 kts | 89° |
| 2026-05-01 10:56 | 39.35041 | 0.85587 | 29119 ft | 425 kts | 89° |
| 2026-05-01 10:56 | 39.35202 | 0.89398 | 28740 ft | 425 kts | 89° |
| 2026-05-01 10:57 | 39.35361 | 0.93194 | 28330 ft | 420 kts | 89° |
| 2026-05-01 10:57 | 39.35518 | 0.96959 | 27757 ft | 418 kts | 89° |
| 2026-05-01 10:57 | 39.35672 | 1.00701 | 27177 ft | 417 kts | 89° |
| 2026-05-01 10:57 | 39.35825 | 1.04448 | 26567 ft | 418 kts | 89° |
| 2026-05-01 10:58 | 39.35977 | 1.08196 | 25953 ft | 418 kts | 89° |
| 2026-05-01 10:58 | 39.36129 | 1.11957 | 25324 ft | 418 kts | 89° |
| 2026-05-01 10:58 | 39.36279 | 1.15692 | 24704 ft | 415 kts | 89° |
| 2026-05-01 10:58 | 39.36426 | 1.19398 | 24089 ft | 412 kts | 89° |
| 2026-05-01 10:59 | 39.36571 | 1.23090 | 23427 ft | 409 kts | 89° |
| 2026-05-01 10:59 | 39.36713 | 1.26732 | 22813 ft | 403 kts | 89° |
| 2026-05-01 10:59 | 39.36853 | 1.30323 | 22232 ft | 397 kts | 89° |
| 2026-05-01 10:59 | 39.36987 | 1.33820 | 21655 ft | 392 kts | 89° |
| 2026-05-01 11:00 | 39.37120 | 1.37314 | 21086 ft | 387 kts | 89° |
| 2026-05-01 11:00 | 39.37261 | 1.40772 | 20520 ft | 384 kts | 86° |
| 2026-05-01 11:00 | 39.37692 | 1.44173 | 19981 ft | 383 kts | 81° |
| 2026-05-01 11:00 | 39.38133 | 1.47575 | 19488 ft | 383 kts | 82° |
| 2026-05-01 11:01 | 39.38563 | 1.50966 | 18979 ft | 381 kts | 82° |
| 2026-05-01 11:01 | 39.39008 | 1.54333 | 18482 ft | 379 kts | 82° |
| 2026-05-01 11:01 | 39.39455 | 1.57678 | 17947 ft | 375 kts | 82° |
| 2026-05-01 11:01 | 39.39889 | 1.60986 | 17474 ft | 372 kts | 82° |
| 2026-05-01 11:02 | 39.40317 | 1.64280 | 16998 ft | 371 kts | 82° |
| 2026-05-01 11:02 | 39.40739 | 1.67521 | 16519 ft | 370 kts | 82° |
| 2026-05-01 11:02 | 39.41166 | 1.70794 | 16036 ft | 368 kts | 81° |
| 2026-05-01 11:02 | 39.41591 | 1.74055 | 15556 ft | 367 kts | 81° |
| 2026-05-01 11:03 | 39.42011 | 1.77300 | 15077 ft | 365 kts | 81° |
| 2026-05-01 11:03 | 39.42428 | 1.80528 | 14603 ft | 363 kts | 81° |
| 2026-05-01 11:03 | 39.42842 | 1.83738 | 14128 ft | 358 kts | 81° |
| 2026-05-01 11:03 | 39.43248 | 1.86883 | 13644 ft | 350 kts | 81° |
| 2026-05-01 11:04 | 39.43643 | 1.89957 | 13193 ft | 341 kts | 81° |
| 2026-05-01 11:04 | 39.44026 | 1.92943 | 12754 ft | 331 kts | 82° |
| 2026-05-01 11:04 | 39.44397 | 1.95842 | 12320 ft | 322 kts | 82° |
| 2026-05-01 11:04 | 39.44756 | 1.98661 | 11926 ft | 313 kts | 82° |
| 2026-05-01 11:05 | 39.45105 | 2.01404 | 11525 ft | 305 kts | 82° |
| 2026-05-01 11:05 | 39.45625 | 2.04020 | 11150 ft | 297 kts | 70° |
| 2026-05-01 11:05 | 39.46294 | 2.06483 | 10776 ft | 290 kts | 72° |
| 2026-05-01 11:05 | 39.46924 | 2.08967 | 10232 ft | 292 kts | 72° |
| 2026-05-01 11:06 | 39.47573 | 2.11461 | 9641 ft | 292 kts | 72° |
| 2026-05-01 11:06 | 39.48229 | 2.13931 | 9024 ft | 287 kts | 71° |
| 2026-05-01 11:06 | 39.48870 | 2.16354 | 8444 ft | 282 kts | 71° |
| 2026-05-01 11:07 | 39.50112 | 2.21095 | 7282 ft | 273 kts | 71° |
| 2026-05-01 11:07 | 39.50719 | 2.23411 | 6683 ft | 270 kts | 71° |
| 2026-05-01 11:07 | 39.51320 | 2.25699 | 6059 ft | 267 kts | 71° |
| 2026-05-01 11:07 | 39.51906 | 2.27929 | 5450 ft | 263 kts | 71° |
| 2026-05-01 11:08 | 39.52486 | 2.30153 | 4833 ft | 259 kts | 72° |
| 2026-05-01 11:08 | 39.53055 | 2.32340 | 4207 ft | 254 kts | 72° |
| 2026-05-01 11:08 | 39.54129 | 2.36454 | 3706 ft | 220 kts | 71° |
| 2026-05-01 11:09 | 39.54580 | 2.38252 | 3633 ft | 203 kts | 76° |
| 2026-05-01 11:09 | 39.54522 | 2.40102 | 3328 ft | 211 kts | 107° |
| 2026-05-01 11:09 | 39.53793 | 2.41749 | 3085 ft | 211 kts | 123° |
| 2026-05-01 11:10 | 39.52163 | 2.44742 | 2594 ft | 196 kts | 123° |
| 2026-05-01 11:10 | 39.51384 | 2.46187 | 2319 ft | 189 kts | 123° |
| 2026-05-01 11:10 | 39.50646 | 2.47552 | 2329 ft | 183 kts | 122° |
| 2026-05-01 11:10 | 39.49938 | 2.48870 | 2328 ft | 179 kts | 122° |
| 2026-05-01 11:11 | 39.49224 | 2.50194 | 2316 ft | 180 kts | 122° |
| 2026-05-01 11:11 | 39.48512 | 2.51513 | 2317 ft | 174 kts | 122° |
| 2026-05-01 11:11 | 39.47825 | 2.52782 | 2316 ft | 172 kts | 123° |
| 2026-05-01 11:11 | 39.47262 | 2.54111 | 2261 ft | 168 kts | 102° |
| 2026-05-01 11:12 | 39.47504 | 2.55533 | 2311 ft | 163 kts | 65° |
| 2026-05-01 11:12 | 39.48042 | 2.56848 | 2329 ft | 167 kts | 62° |
| 2026-05-01 11:12 | 39.48622 | 2.58139 | 2274 ft | 162 kts | 60° |
| 2026-05-01 11:12 | 39.49186 | 2.59344 | 2074 ft | 152 kts | 60° |
| 2026-05-01 11:13 | 39.49726 | 2.60485 | 1870 ft | 146 kts | 60° |
| 2026-05-01 11:13 | 39.50252 | 2.61600 | 1686 ft | 143 kts | 60° |
| 2026-05-01 11:13 | 39.50760 | 2.62668 | 1491 ft | 136 kts | 60° |
| 2026-05-01 11:13 | 39.51253 | 2.63710 | 1316 ft | 137 kts | 60° |
| 2026-05-01 11:14 | 39.51745 | 2.64774 | 1132 ft | 135 kts | 60° |
| 2026-05-01 11:14 | 39.52236 | 2.65815 | 955 ft | 139 kts | 60° |
| 2026-05-01 11:14 | 39.52735 | 2.66867 | 777 ft | 136 kts | 61° |
| 2026-05-01 11:14 | 39.53229 | 2.67906 | 627 ft | 130 kts | 60° |
| 2026-05-01 11:15 | 39.53705 | 2.68932 | 431 ft | 134 kts | 60° |
| 2026-05-01 11:15 | 39.54169 | 2.69921 | 229 ft | 126 kts | 60° |
| 2026-05-01 11:15 | 39.54624 | 2.70885 | 83 ft | 123 kts | 59° |
| 2026-05-01 11:15 | 39.55024 | 2.71727 | 44 ft | 79 kts | 58° |
| 2026-05-01 11:16 | 39.55215 | 2.72130 | 44 ft | 35 kts | 58° |
| 2026-05-01 11:16 | 39.55326 | 2.72364 | 44 ft | 33 kts | 58° |
| 2026-05-01 11:16 | 39.55447 | 2.72621 | 44 ft | 31 kts | 61° |
| 2026-05-01 11:16 | 39.55493 | 2.72854 | 44 ft | 21 kts | 86° |
| 2026-05-01 11:17 | 39.55500 | 2.73016 | 44 ft | 14 kts | 88° |
| 2026-05-01 11:17 | 39.55502 | 2.73134 | 44 ft | 12 kts | 88° |
| 2026-05-01 11:17 | 39.55529 | 2.73233 | 44 ft | 12 kts | 59° |
| 2026-05-01 11:17 | 39.55545 | 2.73268 | 44 ft | 0 kts | 58° |
| 2026-05-01 11:18 | 39.55546 | 2.73270 | 44 ft | 2 kts | 58° |
| 2026-05-01 11:18 | 39.55547 | 2.73271 | 44 ft | 0 kts | 58° |
| 2026-05-01 11:18 | 39.55553 | 2.73283 | 44 ft | 4 kts | 58° |
| 2026-05-01 11:18 | 39.55576 | 2.73331 | 44 ft | 8 kts | 58° |
| 2026-05-01 11:19 | 39.55613 | 2.73409 | 44 ft | 11 kts | 63° |
| 2026-05-01 11:19 | 39.55605 | 2.73503 | 44 ft | 11 kts | 127° |
| 2026-05-01 11:19 | 39.55540 | 2.73561 | 44 ft | 12 kts | 161° |
| 2026-05-01 11:19 | 39.55478 | 2.73520 | 44 ft | 11 kts | 234° |
| 2026-05-01 11:20 | 39.55430 | 2.73426 | 44 ft | 14 kts | 238° |
| 2026-05-01 11:20 | 39.55376 | 2.73311 | 44 ft | 16 kts | 239° |
| 2026-05-01 11:20 | 39.55315 | 2.73176 | 44 ft | 18 kts | 239° |
| 2026-05-01 11:20 | 39.55259 | 2.73060 | 44 ft | 12 kts | 238° |
| 2026-05-01 11:21 | 39.55208 | 2.72957 | 44 ft | 15 kts | 237° |
| 2026-05-01 11:21 | 39.55172 | 2.72899 | 44 ft | 4 kts | 212° |
| 2026-05-01 11:21 | 39.55139 | 2.72894 | 44 ft | 6 kts | 177° |
| 2026-05-01 11:21 | 39.55111 | 2.72900 | 44 ft | 0 kts | 167° |